createdAt,value
2022-09-13T06:34:50.396Z,10.33
2022-09-13T06:37:20.089Z,10.41
2022-09-13T06:39:49.893Z,10.47
2022-09-13T06:42:19.720Z,10.51
2022-09-13T06:44:49.389Z,10.58
2022-09-13T06:47:19.143Z,10.63
2022-09-13T06:49:48.787Z,10.69
2022-09-13T06:52:18.922Z,10.77
2022-09-13T06:54:48.601Z,10.83
2022-09-13T06:57:18.255Z,10.91
2022-09-13T06:59:48.032Z,10.96
2022-09-13T07:02:17.694Z,11.02
2022-09-13T07:04:47.406Z,11.11
2022-09-13T07:07:16.965Z,11.19
2022-09-13T07:09:46.557Z,11.26
2022-09-13T07:12:20.031Z,11.32
2022-09-13T07:14:50.293Z,11.41
2022-09-13T07:17:19.943Z,11.50
2022-09-13T07:19:49.687Z,11.57
2022-09-13T07:22:19.349Z,11.63
2022-09-13T07:24:49.043Z,11.73
2022-09-13T07:27:18.722Z,11.82
2022-09-13T07:29:48.356Z,11.89
2022-09-13T07:32:17.980Z,11.97
2022-09-13T07:34:47.712Z,12.06
2022-09-13T07:37:17.329Z,12.12
2022-09-13T07:39:47.713Z,12.18
2022-09-13T07:42:17.489Z,12.27
2022-09-13T07:44:47.229Z,12.35
2022-09-13T07:47:16.863Z,12.46
2022-09-13T07:49:46.912Z,12.54
2022-09-13T07:52:16.637Z,12.63
2022-09-13T07:54:47.956Z,12.70
2022-09-13T07:57:17.534Z,12.80
2022-09-13T07:59:47.686Z,12.88
2022-09-13T08:02:19.742Z,13.00
2022-09-13T08:04:49.415Z,13.07
2022-09-13T08:07:19.102Z,13.18
2022-09-13T08:09:48.885Z,13.26
2022-09-13T08:12:18.499Z,13.35
2022-09-13T08:14:48.120Z,13.43
2022-09-13T08:17:17.738Z,13.52
2022-09-13T08:19:47.349Z,13.65
2022-09-13T08:22:16.931Z,13.74
2022-09-13T08:24:46.724Z,13.83
2022-09-13T08:27:16.359Z,13.94
2022-09-13T08:29:46.299Z,14.05
2022-09-13T08:32:15.945Z,14.15
2022-09-13T08:34:45.555Z,14.31
2022-09-13T08:37:15.744Z,14.41
2022-09-13T08:39:45.575Z,14.54
2022-09-13T08:42:33.594Z,14.64
2022-09-13T08:45:03.541Z,14.71
2022-09-13T08:47:42.387Z,14.79
2022-09-13T08:50:30.059Z,14.91
2022-09-13T08:52:59.574Z,15.01
2022-09-13T08:55:43.511Z,15.08
2022-09-13T08:58:42.670Z,15.20
2022-09-13T09:01:25.057Z,15.30
2022-09-13T09:03:54.787Z,15.44
2022-09-13T09:06:25.473Z,15.54
2022-09-13T09:09:02.537Z,15.63
2022-09-13T09:11:38.669Z,15.72
2022-09-13T09:14:27.977Z,15.83
2022-09-13T09:17:04.519Z,15.94
2022-09-13T09:19:48.010Z,16.05
2022-09-13T09:22:24.441Z,16.14
2022-09-13T09:24:57.696Z,16.28
2022-09-13T09:27:27.880Z,16.39
2022-09-13T09:30:00.867Z,16.46
2022-09-13T09:32:36.346Z,16.56
2022-09-13T09:35:34.142Z,16.65
2022-09-13T09:38:27.475Z,16.78
2022-09-13T09:40:57.784Z,16.85
2022-09-13T09:43:33.579Z,16.95
2022-09-13T09:46:05.679Z,17.04
2022-09-13T09:48:44.579Z,17.11
2022-09-13T09:51:17.996Z,17.18
2022-09-13T09:53:51.974Z,17.26
2022-09-13T09:56:29.582Z,17.35
2022-09-13T09:58:59.350Z,17.44
2022-09-13T10:01:34.015Z,17.55
2022-09-13T10:04:24.015Z,17.64
2022-09-13T10:07:15.077Z,17.72
2022-09-13T10:10:04.508Z,17.80
2022-09-13T10:12:37.714Z,17.89
2022-09-13T10:15:08.982Z,17.98
2022-09-13T10:17:39.123Z,18.03
2022-09-13T10:20:17.535Z,18.10
2022-09-13T10:22:48.254Z,18.21
2022-09-13T10:25:25.888Z,18.28
2022-09-13T10:28:01.727Z,18.34
2022-09-13T10:30:45.111Z,18.46
2022-09-13T10:33:30.750Z,18.53
2022-09-13T10:36:07.540Z,18.58
2022-09-13T10:38:45.519Z,18.72
2022-09-13T10:41:26.106Z,18.75
2022-09-13T10:44:09.733Z,18.81
2022-09-13T10:46:43.198Z,18.84
2022-09-13T10:49:43.719Z,18.98
2022-09-13T10:52:34.841Z,19.03
2022-09-13T10:55:22.841Z,19.10
2022-09-13T10:58:05.789Z,19.07
2022-09-13T11:00:44.746Z,19.10
2022-09-13T11:03:33.175Z,19.21
2022-09-13T11:06:33.558Z,19.23
2022-09-13T11:09:12.274Z,19.27
2022-09-13T11:12:06.776Z,19.32
2022-09-13T11:15:05.319Z,19.39
2022-09-13T11:17:59.462Z,19.45
2022-09-13T11:20:52.403Z,19.53
2022-09-13T11:23:40.216Z,19.56
2022-09-13T11:26:24.220Z,19.67
2022-09-13T11:29:27.608Z,19.72
2022-09-13T11:32:27.670Z,19.80
2022-09-13T11:35:20.583Z,19.89
2022-09-13T11:38:28.915Z,19.91
2022-09-13T11:41:33.309Z,20.05
2022-09-13T11:44:08.837Z,20.08
2022-09-13T11:46:49.063Z,20.16
2022-09-13T11:49:30.704Z,20.27
2022-09-13T11:52:36.293Z,20.35
2022-09-13T11:55:28.522Z,20.48
2022-09-13T11:58:07.162Z,20.50
2022-09-13T12:01:00.160Z,20.57
2022-09-13T12:04:05.426Z,20.57
2022-09-13T12:06:45.875Z,20.64
2022-09-13T12:09:19.267Z,20.62
2022-09-13T12:11:56.062Z,20.69
2022-09-13T12:14:28.915Z,20.81
2022-09-13T12:17:05.894Z,20.87
2022-09-13T12:19:58.726Z,20.85
2022-09-13T12:22:35.390Z,20.98
2022-09-13T12:25:28.718Z,21.09
2022-09-13T12:28:22.821Z,21.22
2022-09-13T12:31:22.410Z,21.39
2022-09-13T12:33:52.221Z,21.36
2022-09-13T12:36:30.550Z,21.56
2022-09-13T12:39:27.227Z,21.71
2022-09-13T12:42:08.886Z,21.95
2022-09-13T12:44:54.215Z,22.10
2022-09-13T12:47:54.839Z,22.29
2022-09-13T12:50:49.958Z,22.55
2022-09-13T12:53:38.792Z,22.80
2022-09-13T12:56:14.223Z,22.89
2022-09-13T12:59:28.902Z,23.16
2022-09-13T13:02:00.419Z,23.31
2022-09-13T13:04:39.174Z,23.57
2022-09-13T13:07:21.722Z,23.78
2022-09-13T13:09:57.585Z,23.88
2022-09-13T13:12:39.154Z,24.01
2022-09-13T13:15:17.846Z,24.18
2022-09-13T13:17:50.456Z,24.42
2022-09-13T13:20:41.771Z,24.56
2022-09-13T13:23:34.678Z,24.59
2022-09-13T13:26:45.185Z,24.61
2022-09-13T13:29:23.469Z,24.65
2022-09-13T13:32:04.210Z,24.79
2022-09-13T13:34:39.150Z,24.92
2022-09-13T13:37:31.755Z,25.06
2022-09-13T13:40:29.759Z,25.17
2022-09-13T13:43:35.158Z,25.41
2022-09-13T13:46:13.884Z,25.45
2022-09-13T13:48:44.712Z,25.59
2022-09-13T13:51:14.403Z,25.66
2022-09-13T13:54:03.353Z,25.75
2022-09-13T13:56:48.978Z,25.78
2022-09-13T13:59:25.857Z,25.82
2022-09-13T14:01:59.564Z,25.73
2022-09-13T14:05:08.357Z,25.69
2022-09-13T14:07:53.712Z,25.56
2022-09-13T14:10:34.160Z,25.15
2022-09-13T14:13:25.393Z,25.11
2022-09-13T14:16:00.831Z,25.01
2022-09-13T14:19:02.918Z,24.93
2022-09-13T14:21:33.691Z,24.68
2022-09-13T14:24:26.923Z,24.59
2022-09-13T14:27:04.931Z,24.33
2022-09-13T14:29:37.123Z,24.28
2022-09-13T14:32:10.845Z,24.10
2022-09-13T14:34:41.942Z,23.95
2022-09-13T14:37:21.988Z,23.91
2022-09-13T14:40:11.331Z,23.78
2022-09-13T14:42:51.927Z,23.60
2022-09-13T14:45:39.561Z,23.50
2022-09-13T14:48:26.975Z,23.45
2022-09-13T14:51:09.304Z,23.37
2022-09-13T14:53:39.628Z,23.23
2022-09-13T14:56:16.770Z,23.02
2022-09-13T14:58:53.913Z,22.94
2022-09-13T15:01:30.903Z,22.90
2022-09-13T15:04:02.844Z,22.83
2022-09-13T15:06:36.113Z,22.74
2022-09-13T15:09:14.856Z,22.59
2022-09-13T15:11:46.739Z,22.34
2022-09-13T15:14:27.212Z,22.21
2022-09-13T15:17:17.103Z,22.07
2022-09-13T15:19:52.569Z,21.86
2022-09-13T15:22:28.021Z,21.62
2022-09-13T15:25:01.034Z,21.43
2022-09-13T15:27:34.338Z,21.31
2022-09-13T15:30:06.738Z,21.16
2022-09-13T15:32:46.671Z,21.09
2022-09-13T15:35:25.772Z,20.97
2022-09-13T15:38:17.846Z,20.83
2022-09-13T15:40:50.304Z,20.67
2022-09-13T15:43:19.939Z,20.55
2022-09-13T15:45:49.831Z,20.50
2022-09-13T15:48:29.452Z,20.48
2022-09-13T15:51:16.605Z,20.31
2022-09-13T15:53:48.436Z,20.22
2022-09-13T15:56:21.797Z,20.14
2022-09-13T15:58:51.987Z,20.00
2022-09-13T16:01:21.697Z,19.88
2022-09-13T16:03:51.467Z,19.88
2022-09-13T16:06:24.586Z,19.85
2022-09-13T16:08:54.758Z,19.78
2022-09-13T16:11:27.133Z,19.74
2022-09-13T16:13:58.852Z,19.61
2022-09-13T16:16:28.740Z,19.59
2022-09-13T16:18:58.618Z,19.49
2022-09-13T16:21:29.794Z,19.38
2022-09-13T16:23:59.649Z,19.34
2022-09-13T16:26:29.415Z,19.24
2022-09-13T16:28:59.019Z,19.20
2022-09-13T16:31:28.874Z,19.15
2022-09-13T16:33:58.623Z,19.11
2022-09-13T16:36:28.967Z,19.06
2022-09-13T16:38:59.961Z,19.03
2022-09-13T16:41:29.707Z,18.95
2022-09-13T16:43:59.747Z,18.91
2022-09-13T16:46:30.962Z,18.74
2022-09-13T16:49:01.220Z,18.76
2022-09-13T16:51:31.039Z,18.64
2022-09-13T16:54:00.705Z,18.66
2022-09-13T16:56:30.593Z,18.60
2022-09-13T16:59:00.304Z,18.54
2022-09-13T17:01:31.540Z,18.52
2022-09-13T17:04:01.979Z,18.49
2022-09-13T17:06:31.634Z,18.49
2022-09-13T17:09:05.543Z,18.38
2022-09-13T17:11:38.480Z,18.34
2022-09-13T17:14:09.921Z,18.31
2022-09-13T17:16:41.429Z,18.32
2022-09-13T17:19:16.370Z,18.23
2022-09-13T17:21:46.913Z,18.20
2022-09-13T17:24:17.702Z,18.18
2022-09-13T17:26:48.122Z,18.12
2022-09-13T17:29:18.300Z,18.10
2022-09-13T17:31:48.271Z,17.99
2022-09-13T17:34:17.875Z,17.98
2022-09-13T17:36:51.025Z,17.90
2022-09-13T17:39:21.452Z,17.84
2022-09-13T17:41:51.617Z,17.80
2022-09-13T17:44:21.256Z,17.79
2022-09-13T17:46:51.048Z,17.72
2022-09-13T17:49:20.767Z,17.68
2022-09-13T17:51:50.526Z,17.66
2022-09-13T17:54:20.222Z,17.65
2022-09-13T17:56:49.862Z,17.61
2022-09-13T17:59:22.139Z,17.59
2022-09-13T18:01:56.661Z,17.53
2022-09-13T18:04:27.708Z,17.48
2022-09-13T18:06:57.717Z,17.46
2022-09-13T18:09:27.520Z,17.42
2022-09-13T18:11:57.146Z,17.41
2022-09-13T18:14:27.818Z,17.36
2022-09-13T18:16:58.133Z,17.33
2022-09-13T18:19:44.929Z,17.32
2022-09-13T18:22:15.999Z,17.30
2022-09-13T18:24:45.934Z,17.29
2022-09-13T18:27:15.575Z,17.28
2022-09-13T18:29:45.190Z,17.25
2022-09-13T18:32:15.006Z,17.22
2022-09-13T18:34:44.740Z,17.17
2022-09-13T18:37:15.565Z,17.16
2022-09-13T18:39:46.356Z,17.18
2022-09-13T18:42:16.130Z,17.15
2022-09-13T18:44:46.511Z,17.13
2022-09-13T18:47:16.535Z,17.11
2022-09-13T18:49:46.285Z,17.09
2022-09-13T18:52:16.610Z,17.05
2022-09-13T18:54:46.343Z,17.04
2022-09-13T18:57:16.412Z,17.02
2022-09-13T18:59:46.030Z,16.99
2022-09-13T19:02:15.973Z,16.98
2022-09-13T19:04:45.769Z,16.96
2022-09-13T19:07:15.507Z,16.94
2022-09-13T19:09:45.100Z,16.92
2022-09-13T19:12:14.714Z,16.92
2022-09-13T19:14:44.613Z,16.89
2022-09-13T19:17:14.334Z,16.88
2022-09-13T19:19:43.971Z,16.86
2022-09-13T19:22:13.624Z,16.80
2022-09-13T19:24:43.577Z,16.79
2022-09-13T19:27:13.492Z,16.80
2022-09-13T19:29:43.155Z,16.80
2022-09-13T19:32:12.727Z,16.78
2022-09-13T19:34:42.399Z,16.76
2022-09-13T19:37:12.069Z,16.76
2022-09-13T19:39:42.392Z,16.72
2022-09-13T19:42:12.062Z,16.73
2022-09-13T19:44:41.786Z,16.71
2022-09-13T19:50:01.390Z,16.68
2022-09-13T19:52:31.158Z,16.67
2022-09-13T19:55:00.745Z,16.66
2022-09-13T19:57:30.886Z,16.63
2022-09-13T20:00:00.564Z,16.59
2022-09-13T20:02:30.161Z,16.58
2022-09-13T20:05:00.057Z,16.56
2022-09-13T20:07:29.711Z,16.59
2022-09-13T20:10:01.481Z,16.57
2022-09-13T20:12:31.230Z,16.56
2022-09-13T20:15:00.860Z,16.55
2022-09-13T20:17:30.491Z,16.53
2022-09-13T20:20:02.160Z,16.52
2022-09-13T20:22:31.759Z,16.51
2022-09-13T20:25:01.440Z,16.51
2022-09-13T20:27:32.866Z,16.48
2022-09-13T20:30:04.539Z,16.49
2022-09-13T20:32:34.431Z,16.47
2022-09-13T20:35:04.139Z,16.45
2022-09-13T20:37:34.523Z,16.45
2022-09-13T20:40:04.508Z,16.41
2022-09-13T20:42:34.590Z,16.40
2022-09-13T20:45:04.442Z,16.37
2022-09-13T20:47:36.689Z,16.37
2022-09-13T20:50:08.083Z,16.37
2022-09-13T20:52:37.904Z,16.36
2022-09-13T20:55:07.962Z,16.32
2022-09-13T20:57:38.577Z,16.30
2022-09-13T21:00:09.165Z,16.28
2022-09-13T21:02:38.821Z,16.29
2022-09-13T21:05:09.056Z,16.23
2022-09-13T21:07:51.067Z,16.22
2022-09-13T21:10:21.279Z,16.20
2022-09-13T21:12:54.834Z,16.18
2022-09-13T21:15:24.683Z,16.17
2022-09-13T21:17:54.386Z,16.18
2022-09-13T21:20:24.236Z,16.14
2022-09-13T21:22:55.289Z,16.16
2022-09-13T21:25:25.508Z,16.13
2022-09-13T21:27:55.505Z,16.12
2022-09-13T21:30:26.021Z,16.11
2022-09-13T21:32:55.658Z,16.11
2022-09-13T21:35:25.394Z,16.09
2022-09-13T21:37:54.978Z,16.04
2022-09-13T21:40:24.595Z,16.05
2022-09-13T21:42:54.284Z,16.04
2022-09-13T21:45:24.052Z,16.03
2022-09-13T21:47:53.647Z,16.04
2022-09-13T21:50:23.398Z,16.02
2022-09-13T21:52:53.042Z,16.02
2022-09-13T21:55:22.762Z,16.03
2022-09-13T21:57:52.459Z,16.04
2022-09-13T22:00:23.039Z,16.03
2022-09-13T22:02:52.687Z,16.01
2022-09-13T22:05:22.714Z,16.00
2022-09-13T22:07:52.338Z,15.98
2022-09-13T22:10:21.958Z,15.97
2022-09-13T22:12:51.634Z,15.95
2022-09-13T22:15:21.363Z,15.92
2022-09-13T22:17:51.061Z,15.91
2022-09-13T22:20:20.640Z,15.90
2022-09-13T22:22:50.245Z,15.87
2022-09-13T22:25:19.817Z,15.84
2022-09-13T22:27:49.536Z,15.84
2022-09-13T22:30:19.244Z,15.85
2022-09-13T22:32:49.271Z,15.84
2022-09-13T22:35:18.950Z,15.83
2022-09-13T22:37:48.674Z,15.79
2022-09-13T22:40:19.270Z,15.81
2022-09-13T22:42:50.707Z,15.80
2022-09-13T22:45:20.556Z,15.79
2022-09-13T22:47:50.160Z,15.79
2022-09-13T22:50:19.795Z,15.80
2022-09-13T22:52:49.555Z,15.78
2022-09-13T22:55:19.230Z,15.77
2022-09-13T22:57:48.855Z,15.70
2022-09-13T23:00:18.710Z,15.68
2022-09-13T23:02:48.303Z,15.68
2022-09-13T23:05:18.350Z,15.67
2022-09-13T23:07:48.026Z,15.69
2022-09-13T23:10:17.616Z,15.68
2022-09-13T23:12:47.666Z,15.66
2022-09-13T23:15:17.493Z,15.66
2022-09-13T23:17:47.123Z,15.62
2022-09-13T23:20:16.854Z,15.62
2022-09-13T23:22:46.437Z,15.61
2022-09-13T23:25:16.199Z,15.57
2022-09-13T23:27:46.269Z,15.55
2022-09-13T23:30:16.060Z,15.56
2022-09-13T23:32:45.673Z,15.53
2022-09-13T23:35:15.263Z,15.47
2022-09-13T23:37:44.918Z,15.45
2022-09-13T23:40:14.996Z,15.40
2022-09-13T23:42:44.731Z,15.39
2022-09-13T23:45:15.015Z,15.36
2022-09-13T23:47:44.746Z,15.34
2022-09-13T23:50:14.737Z,15.31
2022-09-13T23:52:44.911Z,15.27
2022-09-13T23:55:14.823Z,15.24
2022-09-13T23:57:44.518Z,15.20
